Time;durP1;ratioP1;P1;durP2;ratioP2;P2;SDS_P1;SDS_P2;PMS_P1;PMS_P2;Temp;Humidity;BMP_temperature;BMP_pressure;BME280_temperature;BME280_humidity;BME280_pressure;Samples;Min_cycle;Max_cycle;Signal;HPM_P1;HPM_P2
2020/12/19 05:02:39;;;;;;;20.77;13.17;;;;;;;;;;4927602;24;181232;-76
2020/12/19 05:05:07;;;;;;;18.97;12.30;;;;;;;;;;4651374;29;177256;-75
2020/12/19 05:07:39;;;;;;;22.67;13.23;;;;;;;;;;4650457;29;179393;-75
2020/12/19 05:10:06;;;;;;;37.73;15.40;;;;;;;;;;4650441;29;178420;-75
2020/12/19 05:12:34;;;;;;;89.50;19.60;;;;;;;;;;4649125;29;181862;-76
2020/12/19 05:15:01;;;;;;;30.77;14.67;;;;;;;;;;4649806;29;178733;-75
2020/12/19 05:17:28;;;;;;;40.67;15.63;;;;;;;;;;4650654;29;178944;-76
2020/12/19 05:19:54;;;;;;;28.87;14.27;;;;;;;;;;4648967;29;178502;-75
2020/12/19 05:22:21;;;;;;;36.93;15.50;;;;;;;;;;4653574;29;177946;-75
2020/12/19 05:24:48;;;;;;;22.80;13.10;;;;;;;;;;4654092;29;178017;-76
2020/12/19 05:27:16;;;;;;;52.73;17.10;;;;;;;;;;4633154;29;179394;-75
2020/12/19 05:29:43;;;;;;;58.63;16.97;;;;;;;;;;4657068;29;178199;-76
2020/12/19 05:32:12;;;;;;;20.90;12.80;;;;;;;;;;4650257;29;177913;-76
2020/12/19 05:34:39;;;;;;;46.50;16.43;;;;;;;;;;4650788;29;177874;-76
2020/12/19 05:37:09;;;;;;;28.97;14.67;;;;;;;;;;4648184;29;183511;-76
2020/12/19 05:39:36;;;;;;;118.73;20.60;;;;;;;;;;4648543;29;181489;-76
2020/12/19 05:42:02;;;;;;;26.67;13.17;;;;;;;;;;4648942;29;178223;-76
2020/12/19 05:44:30;;;;;;;39.23;14.40;;;;;;;;;;4650517;29;177959;-77
2020/12/19 05:46:56;;;;;;;28.70;13.80;;;;;;;;;;4650220;29;178512;-76
2020/12/19 05:49:23;;;;;;;34.50;14.83;;;;;;;;;;4649160;29;182107;-77
2020/12/19 05:51:53;;;;;;;26.97;14.17;;;1.50;99.90;;;;;;4649923;29;178660;-76
2020/12/19 05:54:22;;;;;;;23.10;13.43;;;1.50;99.90;;;;;;4650770;29;176751;-76
2020/12/19 05:56:50;;;;;;;30.10;13.93;;;1.40;99.90;;;;;;4649438;29;179173;-76
2020/12/19 05:59:18;;;;;;;40.27;14.97;;;1.40;99.90;;;;;;4632965;29;178023;-76
2020/12/19 06:01:50;;;;;;;21.10;13.23;;;1.30;99.90;;;;;;4642083;29;182109;-76
2020/12/19 06:04:17;;;;;;;29.50;14.67;;;1.30;99.90;;;;;;4650139;29;178823;-76
2020/12/19 06:06:46;;;;;;;24.07;13.47;;;1.30;99.90;;;;;;4649661;29;178654;-76
2020/12/19 06:09:14;;;;;;;20.23;12.53;;;1.30;99.90;;;;;;4649645;29;180078;-76
2020/12/19 06:11:48;;;;;;;24.37;12.93;;;1.30;99.90;;;;;;4649776;29;178711;-76
2020/12/19 06:14:19;;;;;;;19.77;12.33;;;1.30;99.90;;;;;;4649989;29;178125;-76
2020/12/19 06:16:48;;;;;;;22.07;11.73;;;1.30;99.90;;;;;;4649305;29;182700;-75
2020/12/19 06:19:24;;;;;;;29.83;12.43;;;1.20;99.90;;;;;;4650143;29;178340;-75
2020/12/19 06:21:52;;;;;;;27.30;12.10;;;1.20;99.90;;;;;;4648946;29;178572;-75
2020/12/19 06:24:42;;;;;;;20.67;12.03;;;1.20;99.90;;;;;;4648572;29;177961;-75
2020/12/19 06:27:23;;;;;;;23.33;12.70;;;1.20;99.90;;;;;;4648064;29;183375;-75
2020/12/19 06:29:50;;;;;;;41.57;13.63;;;1.20;99.90;;;;;;4649625;29;182393;-75
2020/12/19 06:32:22;;;;;;;24.80;12.37;;;1.10;99.90;;;;;;4631717;29;178965;-75
2020/12/19 06:34:58;;;;;;;22.10;12.63;;;1.40;99.90;;;;;;4634060;29;177933;-75
2020/12/19 06:37:30;;;;;;;19.83;12.37;;;1.10;99.90;;;;;;4649383;29;179849;-73
2020/12/19 06:40:16;;;;;;;21.57;11.90;;;1.10;99.90;;;;;;4649233;29;178095;-74
2020/12/19 06:42:48;;;;;;;26.30;12.73;;;1.10;99.90;;;;;;4649282;29;177987;-74
2020/12/19 06:45:29;;;;;;;22.23;12.37;;;1.00;99.90;;;;;;4650177;29;176793;-75
2020/12/19 06:47:57;;;;;;;56.53;16.53;;;1.00;99.90;;;;;;4649560;29;179505;-74
2020/12/19 06:50:24;;;;;;;62.50;18.57;;;1.00;99.90;;;;;;4634313;29;179858;-75
2020/12/19 06:52:56;;;;;;;26.33;12.83;;;1.00;99.90;;;;;;4642750;29;181762;-75
2020/12/19 06:55:27;;;;;;;38.90;14.90;;;1.00;99.90;;;;;;4645435;29;178674;-74
2020/12/19 06:57:58;;;;;;;87.43;18.43;;;1.00;99.90;;;;;;4646842;29;181264;-75
2020/12/19 07:00:31;;;;;;;29.97;13.07;;;0.90;99.90;;;;;;4646029;29;178325;-74
2020/12/19 07:02:58;;;;;;;35.53;14.50;;;0.90;99.90;;;;;;4644587;29;178004;-74
2020/12/19 07:05:28;;;;;;;34.07;14.93;;;1.00;99.90;;;;;;4646707;29;178193;-74
2020/12/19 07:08:18;;;;;;;60.43;16.47;;;0.90;99.90;;;;;;4645883;29;179348;-74
2020/12/19 07:10:44;;;;;;;24.53;12.67;;;0.90;99.90;;;;;;4646873;29;178404;-74
2020/12/19 07:13:12;;;;;;;21.40;12.43;;;0.90;99.90;;;;;;4646060;29;178018;-74
2020/12/19 07:15:44;;;;;;;24.10;13.50;;;0.90;99.90;;;;;;4646270;29;179258;-74
2020/12/19 07:18:27;;;;;;;63.77;15.93;;;0.90;99.90;;;;;;4644594;29;182961;-74
2020/12/19 07:21:08;;;;;;;66.30;17.23;;;1.00;99.90;;;;;;4645791;29;182200;-74
2020/12/19 07:23:35;;;;;;;21.87;12.17;;;0.90;99.90;;;;;;4645627;29;178204;-74
2020/12/19 07:26:02;;;;;;;22.23;12.90;;;0.90;99.90;;;;;;4645585;29;178470;-74
2020/12/19 07:28:29;;;;;;;23.30;12.93;;;0.90;99.90;;;;;;4645013;29;181445;-74
2020/12/19 07:30:58;;;;;;;35.20;14.47;;;0.80;99.90;;;;;;4644578;29;179579;-74
2020/12/19 07:33:25;;;;;;;27.97;13.50;;;0.80;99.90;;;;;;4644215;29;178723;-74
2020/12/19 07:35:51;;;;;;;20.73;13.10;;;0.80;99.90;;;;;;4647044;29;177311;-75
2020/12/19 07:38:21;;;;;;;28.00;13.10;;;0.80;99.90;;;;;;4644607;29;179861;-74
2020/12/19 07:40:58;;;;;;;44.83;15.77;;;0.80;99.90;;;;;;4658550;29;178650;-74
2020/12/19 07:43:24;;;;;;;19.47;12.07;;;0.80;99.90;;;;;;4644127;29;182061;-74
2020/12/19 07:46:00;;;;;;;35.47;13.60;;;1.30;99.90;;;;;;4644281;29;178655;-74
2020/12/19 07:48:26;;;;;;;22.97;12.10;;;0.80;99.90;;;;;;4644862;29;179577;-74
2020/12/19 07:50:54;;;;;;;87.97;18.87;;;0.80;99.90;;;;;;4645958;29;179118;-74
2020/12/19 07:53:21;;;;;;;23.70;12.60;;;0.80;99.90;;;;;;4642908;29;178041;-74
2020/12/19 07:55:51;;;;;;;114.40;21.20;;;0.80;99.90;;;;;;4645073;29;178516;-75
2020/12/19 07:58:19;;;;;;;96.90;19.57;;;0.80;99.90;;;;;;4645920;29;178922;-74
2020/12/19 08:00:46;;;;;;;227.20;29.47;;;0.90;99.90;;;;;;4646117;29;178851;-74
2020/12/19 08:03:14;;;;;;;39.30;14.30;;;0.90;99.90;;;;;;4645097;29;177938;-74
2020/12/19 08:05:40;;;;;;;97.23;19.17;;;0.90;99.90;;;;;;4646088;29;178442;-73
2020/12/19 08:08:06;;;;;;;74.87;17.50;;;1.00;99.90;;;;;;4644151;29;182857;-73
2020/12/19 08:10:32;;;;;;;63.57;16.13;;;0.90;99.90;;;;;;4646104;29;180375;-73
2020/12/19 08:12:59;;;;;;;48.50;14.27;;;1.00;99.90;;;;;;4644696;29;180058;-73
2020/12/19 08:15:27;;;;;;;72.03;16.23;;;1.00;99.90;;;;;;4645335;29;178014;-73
2020/12/19 08:18:00;;;;;;;79.80;17.33;;;1.00;99.90;;;;;;4644470;29;179244;-73
2020/12/19 08:20:32;;;;;;;57.37;15.97;;;1.00;99.90;;;;;;4644024;29;180495;-73
2020/12/19 08:23:07;;;;;;;21.93;12.80;;;1.30;99.90;;;;;;4643352;29;178527;-73
2020/12/19 08:25:34;;;;;;;25.53;13.13;;;1.10;99.90;;;;;;4644425;29;176564;-73
2020/12/19 08:28:00;;;;;;;31.87;13.47;;;1.10;99.90;;;;;;4645036;29;179965;-73
2020/12/19 08:30:30;;;;;;;22.57;12.73;;;1.20;99.90;;;;;;4643148;29;179509;-73
2020/12/19 08:33:07;;;;;;;83.23;18.67;;;1.30;99.90;;;;;;4642923;29;181460;-73
2020/12/19 08:35:37;;;;;;;85.17;16.43;;;1.20;99.90;;;;;;4644776;29;178357;-73
2020/12/19 08:38:04;;;;;;;103.77;20.77;;;1.20;99.90;;;;;;4640056;29;179863;-73
2020/12/19 08:40:53;;;;;;;83.13;17.77;;;1.20;99.90;;;;;;4644875;29;178661;-71
2020/12/19 08:43:30;;;;;;;30.63;13.90;;;1.20;99.90;;;;;;4648212;29;178600;-72
2020/12/19 08:46:07;;;;;;;24.50;13.40;;;1.20;99.90;;;;;;4647623;29;178721;-72
2020/12/19 08:48:34;;;;;;;42.90;15.57;;;1.30;99.90;;;;;;4646978;29;178816;-72
2020/12/19 08:51:10;;;;;;;39.00;15.73;;;1.30;99.90;;;;;;4648097;29;178634;-72
2020/12/19 08:53:38;;;;;;;100.17;20.17;;;1.40;99.90;;;;;;4647183;29;179229;-71
2020/12/19 08:56:15;;;;;;;28.97;15.03;;;1.40;99.90;;;;;;4647905;29;178606;-72
2020/12/19 08:58:41;;;;;;;54.97;16.30;;;1.50;99.90;;;;;;4648160;29;182719;-71
2020/12/19 09:01:14;;;;;;;22.60;13.30;;;1.50;99.90;;;;;;4649532;29;181471;-72
2020/12/19 09:03:41;;;;;;;21.07;12.63;;;1.50;99.90;;;;;;4650478;29;178637;-71
2020/12/19 09:06:13;;;;;;;40.57;14.63;;;1.60;99.90;;;;;;4650789;29;179116;-72
2020/12/19 09:08:42;;;;;;;32.70;14.37;;;1.80;99.90;;;;;;4649784;29;178700;-72
2020/12/19 09:11:22;;;;;;;21.07;12.43;;;1.90;99.90;;;;;;4646099;29;180854;-72
2020/12/19 09:13:48;;;;;;;22.67;12.17;;;2.40;99.90;;;;;;4651171;29;178330;-72
2020/12/19 09:16:16;;;;;;;21.13;12.70;;;2.10;99.90;;;;;;4651598;29;176601;-72
2020/12/19 09:18:42;;;;;;;27.27;12.57;;;2.20;99.90;;;;;;4650301;29;180138;-72
2020/12/19 09:21:10;;;;;;;23.47;11.70;;;2.10;99.90;;;;;;4650625;29;178475;-73
2020/12/19 09:23:37;;;;;;;26.13;13.47;;;2.20;99.90;;;;;;4648930;29;182004;-73
2020/12/19 09:26:05;;;;;;;30.67;14.27;;;2.30;99.90;;;;;;4650621;29;178679;-72
2020/12/19 09:28:32;;;;;;;20.03;12.27;;;2.30;99.90;;;;;;4648963;29;179718;-73
2020/12/19 09:30:59;;;;;;;22.53;12.00;;;2.40;99.90;;;;;;4650244;29;179065;-73
2020/12/19 09:33:26;;;;;;;27.37;12.73;;;;;;;;;;4650167;29;180200;-73
2020/12/19 09:35:53;;;;;;;32.37;13.53;;;;;;;;;;4650576;29;178610;-74
2020/12/19 09:38:21;;;;;;;20.37;12.07;;;3.40;99.90;;;;;;4650174;29;179682;-74
2020/12/19 09:40:47;;;;;;;25.70;12.40;;;3.50;99.90;;;;;;4650814;29;179244;-75
2020/12/19 09:43:14;;;;;;;16.67;11.60;;;3.70;99.90;;;;;;4650352;29;177950;-73
2020/12/19 09:45:40;;;;;;;19.60;12.33;;;3.80;99.90;;;;;;4650504;29;178046;-74
2020/12/19 09:48:07;;;;;;;22.73;12.40;;;3.90;99.90;;;;;;4647090;29;182787;-73
2020/12/19 09:50:34;;;;;;;21.27;11.17;;;3.80;99.90;;;;;;4650340;29;178408;-74
2020/12/19 09:53:00;;;;;;;26.57;12.33;;;3.80;99.90;;;;;;4649295;29;178219;-75
2020/12/19 09:55:32;;;;;;;18.03;12.00;;;3.80;99.90;;;;;;4649500;29;178626;-75
2020/12/19 09:57:59;;;;;;;15.50;11.10;;;3.80;99.90;;;;;;4649406;29;179257;-75
2020/12/19 10:00:25;;;;;;;18.90;10.97;;;3.90;99.90;;;;;;4649257;29;178699;-75
2020/12/19 10:02:54;;;;;;;29.00;12.90;;;3.90;99.90;;;;;;4649672;29;178767;-75
2020/12/19 10:05:20;;;;;;;16.40;10.97;;;3.90;99.90;;;;;;4650633;29;176390;-73
2020/12/19 10:07:46;;;;;;;24.27;11.07;;;3.90;99.90;;;;;;4649505;29;182026;-75
2020/12/19 10:10:12;;;;;;;19.03;10.83;;;3.90;99.90;;;;;;4649793;29;178525;-74
2020/12/19 10:12:39;;;;;;;19.57;10.60;;;4.00;99.90;;;;;;4647723;29;181842;-72
2020/12/19 10:15:06;;;;;;;17.13;10.83;;;4.00;99.90;;;;;;4650001;29;177960;-73
2020/12/19 10:17:32;;;;;;;16.07;10.77;;;4.10;99.90;;;;;;4649197;29;179500;-77
2020/12/19 10:19:58;;;;;;;15.00;10.50;;;4.10;99.90;;;;;;4649755;29;178195;-81
2020/12/19 10:22:30;;;;;;;14.47;9.93;;;4.10;99.90;;;;;;4649335;29;178116;-77
2020/12/19 10:25:00;;;;;;;14.20;10.10;;;4.20;99.90;;;;;;4650739;29;177975;-73
2020/12/19 10:27:26;;;;;;;16.73;10.77;;;4.40;99.90;;;;;;4647924;29;183164;-75
2020/12/19 10:29:52;;;;;;;14.23;10.03;;;4.30;99.90;;;;;;4650573;29;178312;-73
2020/12/19 10:32:19;;;;;;;16.60;10.30;;;4.40;99.90;;;;;;4649452;29;177876;-73
2020/12/19 10:34:46;;;;;;;14.50;10.13;;;4.50;99.90;;;;;;4650066;29;177964;-74
2020/12/19 10:37:12;;;;;;;14.10;10.07;;;4.50;99.90;;;;;;4647643;29;183123;-73
2020/12/19 10:39:38;;;;;;;14.43;10.43;;;4.60;99.90;;;;;;4649132;29;181591;-73
2020/12/19 10:42:05;;;;;;;14.17;10.17;;;4.70;99.90;;;;;;4649147;29;177993;-73
2020/12/19 10:44:31;;;;;;;14.07;9.90;;;4.70;99.90;;;;;;4649631;29;178659;-75
2020/12/19 10:46:58;;;;;;;14.70;9.53;;;4.80;99.90;;;;;;4645350;29;179089;-78
2020/12/19 10:49:25;;;;;;;12.70;9.53;;;5.00;99.90;;;;;;4647068;29;179799;-76
2020/12/19 10:51:52;;;;;;;11.77;9.23;;;5.40;99.90;;;;;;4641903;29;178666;-76
2020/12/19 10:54:18;;;;;;;12.90;9.00;;;5.00;99.90;;;;;;4645371;29;176691;-76
2020/12/19 10:56:54;;;;;;;13.87;10.10;;;5.00;99.90;;;;;;4642544;29;180135;-76
2020/12/19 10:59:21;;;;;;;14.40;10.07;;;5.10;99.90;;;;;;4644007;29;181688;-76
2020/12/19 11:01:48;;;;;;;14.80;9.87;;;5.20;99.90;;;;;;4641106;29;181744;-75
2020/12/19 11:04:14;;;;;;;12.40;9.10;;;5.20;99.90;;;;;;4643965;29;180117;-75
2020/12/19 11:06:41;;;;;;;13.37;10.13;;;5.30;99.90;;;;;;4644026;29;180514;-76
2020/12/19 11:09:07;;;;;;;11.97;9.93;;;5.40;99.90;;;;;;4642870;29;179894;-73
2020/12/19 11:11:34;;;;;;;13.20;10.00;;;5.40;99.90;;;;;;4644307;29;177858;-77
2020/12/19 11:14:00;;;;;;;12.80;9.70;;;5.50;99.90;;;;;;4644385;29;178104;-75
2020/12/19 11:16:28;;;;;;;12.77;9.07;;;5.50;99.90;;;;;;4646309;29;178782;-77
2020/12/19 11:18:56;;;;;;;13.57;9.20;;;6.00;99.90;;;;;;4645898;29;180838;-77
2020/12/19 11:21:22;;;;;;;13.60;9.23;;;5.70;99.90;;;;;;4645790;29;177966;-78
2020/12/19 11:23:49;;;;;;;12.83;9.30;;;5.80;99.90;;;;;;4645951;29;179045;-77
2020/12/19 11:26:24;;;;;;;12.80;9.67;;;5.80;99.90;;;;;;4644631;29;182403;-77
2020/12/19 11:28:53;;;;;;;13.43;10.00;;;5.80;99.90;;;;;;4645852;29;181769;-77
2020/12/19 11:31:26;;;;;;;12.63;9.30;;;5.80;99.90;;;;;;4642740;29;181139;-75
2020/12/19 11:33:53;;;;;;;11.27;9.07;;;5.90;99.90;;;;;;4645864;29;178641;-77
2020/12/19 11:36:20;;;;;;;13.13;9.50;;;6.00;99.90;;;;;;4645510;29;180694;-78
2020/12/19 11:38:46;;;;;;;12.83;9.33;;;6.00;99.90;;;;;;4646074;29;178536;-79
2020/12/19 11:41:13;;;;;;;16.13;8.70;;;6.00;99.90;;;;;;4643960;29;179344;-78
2020/12/19 11:43:45;;;;;;;11.77;9.40;;;6.10;99.90;;;;;;4646864;29;177572;-80
2020/12/19 11:46:15;;;;;;;15.83;9.93;;;6.10;99.90;;;;;;4646242;29;182851;-79
2020/12/19 11:48:41;;;;;;;12.63;9.13;;;6.10;99.90;;;;;;4664437;29;177970;-76
2020/12/19 11:51:07;;;;;;;13.93;9.60;;;6.20;99.90;;;;;;4648955;29;182030;-78
2020/12/19 11:53:34;;;;;;;12.60;9.13;;;6.20;99.90;;;;;;4645884;29;178676;-78
2020/12/19 11:56:02;;;;;;;11.90;9.10;;;6.30;99.90;;;;;;4646588;29;178776;-78
2020/12/19 11:58:29;;;;;;;11.50;9.23;;;6.30;99.90;;;;;;4646602;29;179344;-74
2020/12/19 12:00:55;;;;;;;13.40;9.80;;;;;;;;;;4646004;29;178448;-79
2020/12/19 12:03:22;;;;;;;12.43;9.80;;;6.60;99.90;;;;;;4645197;29;178119;-76
2020/12/19 12:05:50;;;;;;;13.73;9.73;;;7.10;99.90;;;;;;4647040;29;178800;-76
2020/12/19 12:08:17;;;;;;;13.83;9.67;;;6.40;99.90;;;;;;4647732;29;181219;-77
2020/12/19 12:10:44;;;;;;;13.50;9.57;;;6.40;99.90;;;;;;4647641;29;178409;-81
2020/12/19 12:13:13;;;;;;;13.03;9.57;;;6.50;99.90;;;;;;4646046;29;178568;-77
2020/12/19 12:15:40;;;;;;;11.90;9.00;;;6.50;99.90;;;;;;4643968;29;184371;-76
2020/12/19 12:18:06;;;;;;;10.70;8.97;;;6.50;99.90;;;;;;4646429;29;180562;-74
2020/12/19 12:20:32;;;;;;;13.90;9.33;;;6.40;99.90;;;;;;4647298;29;178026;-79
2020/12/19 12:22:58;;;;;;;13.30;9.57;;;6.50;99.90;;;;;;4646780;29;178044;-79
2020/12/19 12:25:25;;;;;;;12.17;9.23;;;6.40;99.90;;;;;;4646872;29;179345;-79
2020/12/19 12:27:51;;;;;;;11.90;8.57;;;6.60;99.90;;;;;;4646463;29;180935;-77
2020/12/19 12:30:17;;;;;;;13.57;9.07;;;;;;;;;;4647080;29;178489;-80
2020/12/19 12:32:45;;;;;;;12.77;8.60;;;;;;;;;;4649115;29;177662;-79
2020/12/19 12:35:15;;;;;;;10.93;8.47;;;;;;;;;;4647790;29;181636;-77
2020/12/19 12:37:41;;;;;;;11.93;8.67;;;6.90;99.90;;;;;;4649682;29;178173;-80
2020/12/19 12:40:08;;;;;;;13.07;9.07;;;6.60;99.90;;;;;;4647099;29;181694;-78
2020/12/19 12:42:34;;;;;;;10.87;8.10;;;6.60;99.90;;;;;;4647736;29;178068;-77
2020/12/19 12:45:01;;;;;;;11.60;8.63;;;6.60;99.90;;;;;;4648046;29;179840;-74
2020/12/19 12:47:28;;;;;;;11.90;8.17;;;6.70;99.90;;;;;;4632063;29;178569;-75
2020/12/19 12:49:54;;;;;;;13.53;9.07;;;6.70;99.90;;;;;;4632787;29;178612;-78
2020/12/19 12:52:20;;;;;;;15.50;8.50;;;7.10;99.90;;;;;;4648953;29;178138;-79
2020/12/19 12:54:46;;;;;;;13.77;8.70;;;6.80;99.90;;;;;;4645521;29;178745;-76
2020/12/19 12:57:13;;;;;;;14.57;9.03;;;6.90;99.90;;;;;;4650141;29;177821;-80
2020/12/19 12:59:39;;;;;;;10.73;8.20;;;6.80;99.90;;;;;;4648350;29;178057;-78
2020/12/19 13:02:06;;;;;;;17.23;9.30;;;6.90;99.90;;;;;;4646973;29;178126;-80
2020/12/19 13:04:32;;;;;;;11.57;8.40;;;6.40;99.90;;;;;;4646924;29;183639;-75
2020/12/19 13:06:58;;;;;;;13.70;8.10;;;6.80;99.90;;;;;;4648357;29;181503;-76
2020/12/19 13:09:24;;;;;;;10.90;8.33;;;6.80;99.90;;;;;;4649812;29;178555;-76
2020/12/19 13:11:54;;;;;;;26.07;9.67;;;6.90;99.90;;;;;;4648938;29;178627;-76
2020/12/19 13:14:20;;;;;;;17.43;8.40;;;6.70;99.90;;;;;;4644788;29;178715;-77
2020/12/19 13:16:47;;;;;;;12.30;8.37;;;6.80;99.90;;;;;;4646883;29;178480;-76
2020/12/19 13:19:13;;;;;;;14.27;9.03;;;6.80;99.90;;;;;;4648983;29;178936;-78
2020/12/19 13:21:44;;;;;;;13.67;8.17;;;6.80;99.90;;;;;;4647990;29;176858;-77
2020/12/19 13:24:16;;;;;;;11.30;8.27;;;6.90;99.90;;;;;;4632781;29;180491;-75
2020/12/19 13:26:46;;;;;;;10.20;7.67;;;7.70;99.90;;;;;;4654049;29;178695;-77
2020/12/19 13:29:14;;;;;;;49.23;11.20;;;6.80;99.90;;;;;;4647626;29;181774;-78
2020/12/19 13:31:44;;;;;;;16.30;8.83;;;6.90;99.90;;;;;;4647686;29;178157;-77
2020/12/19 13:34:15;;;;;;;14.40;8.03;;;6.80;99.90;;;;;;4648513;29;178774;-77
2020/12/19 13:36:41;;;;;;;29.57;9.27;;;6.80;99.90;;;;;;4647531;29;178098;-78
2020/12/19 13:39:08;;;;;;;18.77;8.43;;;6.80;99.90;;;;;;4647730;29;178473;-79
2020/12/19 13:41:47;;;;;;;11.07;7.80;;;6.70;99.90;;;;;;4646632;29;177982;-89
2020/12/19 13:44:48;;;;;;;18.30;9.00;;;7.00;99.90;;;;;;4646124;29;179404;-88
2020/12/19 13:47:30;;;;;;;12.40;8.00;;;7.30;99.90;;;;;;4649893;29;179054;-83
